createdAt,value
2022-12-03T00:01:57.336Z,4.05
2022-12-03T00:04:00.048Z,4.04
2022-12-03T00:06:04.129Z,4.01
2022-12-03T00:08:06.886Z,4.03
2022-12-03T00:10:10.444Z,4.03
2022-12-03T00:12:13.101Z,3.98
2022-12-03T00:14:15.721Z,3.97
2022-12-03T00:16:18.353Z,3.99
2022-12-03T00:18:20.993Z,3.98
2022-12-03T00:20:25.012Z,3.97
2022-12-03T00:22:28.991Z,3.96
2022-12-03T00:24:31.595Z,3.96
2022-12-03T00:26:34.296Z,3.96
2022-12-03T00:28:36.928Z,3.95
2022-12-03T00:30:39.733Z,3.95
2022-12-03T00:32:42.557Z,3.92
2022-12-03T00:34:45.546Z,3.93
2022-12-03T00:36:48.449Z,3.90
2022-12-03T00:38:52.403Z,3.91
2022-12-03T00:40:55.001Z,3.88
2022-12-03T00:42:57.808Z,3.87
2022-12-03T00:45:00.448Z,3.85
2022-12-03T00:47:03.117Z,3.83
2022-12-03T00:49:06.154Z,3.82
2022-12-03T00:51:08.796Z,3.81
2022-12-03T00:53:11.499Z,3.75
2022-12-03T00:55:15.479Z,3.76
2022-12-03T00:57:18.341Z,3.71
2022-12-03T00:59:20.921Z,3.72
2022-12-03T01:01:23.589Z,3.71
2022-12-03T01:03:26.305Z,3.69
2022-12-03T01:05:28.962Z,3.65
2022-12-03T01:07:31.670Z,3.66
2022-12-03T01:09:34.366Z,3.61
2022-12-03T01:11:38.336Z,3.63
2022-12-03T01:13:40.960Z,3.61
2022-12-03T01:15:43.708Z,3.60
2022-12-03T01:17:46.305Z,3.60
2022-12-03T01:19:48.884Z,3.64
2022-12-03T01:21:52.662Z,3.59
2022-12-03T01:23:55.613Z,3.57
2022-12-03T01:25:58.224Z,3.54
2022-12-03T01:28:02.289Z,3.55
2022-12-03T01:30:06.231Z,3.56
2022-12-03T01:32:16.644Z,3.55
2022-12-03T01:34:19.265Z,3.55
2022-12-03T01:36:21.961Z,3.54
2022-12-03T01:38:24.571Z,3.54
2022-12-03T01:40:27.185Z,3.56
2022-12-03T01:42:32.601Z,3.57
2022-12-03T01:44:40.166Z,3.61
2022-12-03T01:46:43.577Z,3.59
2022-12-03T01:48:46.604Z,3.60
2022-12-03T01:50:49.407Z,3.58
2022-12-03T01:52:59.299Z,3.60
2022-12-03T01:55:05.225Z,3.63
2022-12-03T01:57:19.305Z,3.62
2022-12-03T01:59:23.956Z,3.59
2022-12-03T02:01:28.504Z,3.60
2022-12-03T02:03:31.222Z,3.55
2022-12-03T02:05:35.278Z,3.55
2022-12-03T02:07:37.934Z,3.57
2022-12-03T02:09:40.530Z,3.56
2022-12-03T02:11:46.015Z,3.56
2022-12-03T02:13:50.535Z,3.53
2022-12-03T02:15:53.191Z,3.56
2022-12-03T02:17:58.101Z,3.58
2022-12-03T02:20:02.461Z,3.56
2022-12-03T02:22:12.310Z,3.59
2022-12-03T02:24:23.704Z,3.61
2022-12-03T02:26:28.035Z,3.60
2022-12-03T02:28:30.699Z,3.59
2022-12-03T02:30:34.482Z,3.60
2022-12-03T02:32:38.195Z,3.60
2022-12-03T02:34:42.345Z,3.59
2022-12-03T02:36:44.938Z,3.58
2022-12-03T02:38:49.851Z,3.61
2022-12-03T02:40:56.696Z,3.60
2022-12-03T02:43:02.480Z,3.62
2022-12-03T02:45:10.346Z,3.65
2022-12-03T02:47:13.244Z,3.66
2022-12-03T02:49:15.916Z,3.65
2022-12-03T02:51:18.577Z,3.66
2022-12-03T02:53:25.434Z,3.67
2022-12-03T02:55:33.328Z,3.67
2022-12-03T02:57:39.988Z,3.64
2022-12-03T02:59:45.203Z,3.63
2022-12-03T03:01:48.413Z,3.65
2022-12-03T03:03:52.472Z,3.63
2022-12-03T03:05:56.650Z,3.64
2022-12-03T03:08:01.074Z,3.63
2022-12-03T03:10:05.964Z,3.58
2022-12-03T03:12:08.713Z,3.61
2022-12-03T03:14:11.418Z,3.57
2022-12-03T03:16:15.483Z,3.63
2022-12-03T03:18:18.945Z,3.60
2022-12-03T03:20:21.759Z,3.61
2022-12-03T03:22:32.927Z,3.62
2022-12-03T03:24:37.884Z,3.64
2022-12-03T03:26:40.627Z,3.62
2022-12-03T03:28:46.054Z,3.58
2022-12-03T03:30:48.773Z,3.61
2022-12-03T03:32:52.727Z,3.63
2022-12-03T03:34:56.067Z,3.59
2022-12-03T03:36:58.966Z,3.59
2022-12-03T03:39:01.725Z,3.59
2022-12-03T03:41:06.871Z,3.64
2022-12-03T03:43:09.651Z,3.66
2022-12-03T03:45:12.361Z,3.64
2022-12-03T03:47:15.765Z,3.60
2022-12-03T03:49:19.752Z,3.63
2022-12-03T03:51:23.084Z,3.60
2022-12-03T03:53:25.876Z,3.64
2022-12-03T03:55:28.967Z,3.66
2022-12-03T03:57:31.673Z,3.69
2022-12-03T03:59:34.720Z,3.65
2022-12-03T04:01:37.879Z,3.67
2022-12-03T04:03:40.733Z,3.69
2022-12-03T04:05:44.848Z,3.71
2022-12-03T04:07:47.766Z,3.70
2022-12-03T04:09:50.426Z,3.71
2022-12-03T04:12:10.766Z,3.71
2022-12-03T04:14:13.324Z,3.72
2022-12-03T04:16:16.052Z,3.72
2022-12-03T04:18:36.069Z,3.72
2022-12-03T04:20:39.175Z,3.74
2022-12-03T04:22:42.133Z,3.72
2022-12-03T04:24:44.796Z,3.74
2022-12-03T04:27:05.129Z,3.75
2022-12-03T04:29:07.058Z,3.70
2022-12-03T04:31:23.678Z,3.69
2022-12-03T04:33:55.395Z,3.65
2022-12-03T04:35:58.007Z,3.64
2022-12-03T04:38:02.546Z,3.64
2022-12-03T04:40:26.286Z,3.64
2022-12-03T04:42:28.883Z,3.60
2022-12-03T04:44:33.190Z,3.63
2022-12-03T04:46:35.860Z,3.67
2022-12-03T04:48:38.442Z,3.66
2022-12-03T04:50:41.088Z,3.69
2022-12-03T04:52:43.684Z,3.69
2022-12-03T04:54:47.828Z,3.69
2022-12-03T04:56:50.457Z,3.69
2022-12-03T04:58:53.047Z,3.70
2022-12-03T05:00:55.699Z,3.71
2022-12-03T05:02:58.395Z,3.71
2022-12-03T05:05:01.090Z,3.72
2022-12-03T05:07:03.895Z,3.74
2022-12-03T05:09:06.561Z,3.76
2022-12-03T05:11:10.513Z,3.74
2022-12-03T05:13:13.085Z,3.76
2022-12-03T05:15:15.691Z,3.76
2022-12-03T05:17:18.278Z,3.78
2022-12-03T05:19:20.851Z,3.76
2022-12-03T05:21:22.611Z,3.77
2022-12-03T05:23:25.112Z,3.77
2022-12-03T05:25:27.683Z,3.77
2022-12-03T05:27:31.658Z,3.78
2022-12-03T05:29:34.411Z,3.78
2022-12-03T05:31:36.995Z,3.79
2022-12-03T05:33:44.123Z,3.75
2022-12-03T05:35:47.481Z,3.76
2022-12-03T05:37:50.066Z,3.77
2022-12-03T05:39:52.664Z,3.76
2022-12-03T05:42:13.034Z,3.75
2022-12-03T05:44:20.438Z,3.78
2022-12-03T05:46:23.541Z,3.79
2022-12-03T05:48:26.161Z,3.78
2022-12-03T05:50:30.584Z,3.78
2022-12-03T05:52:33.221Z,3.76
2022-12-03T05:54:35.860Z,3.77
2022-12-03T05:56:38.488Z,3.79
2022-12-03T05:58:41.086Z,3.82
2022-12-03T06:00:45.158Z,3.77
2022-12-03T06:02:48.174Z,3.77
2022-12-03T06:04:51.031Z,3.76
2022-12-03T06:06:53.816Z,3.75
2022-12-03T06:08:56.446Z,3.76
2022-12-03T06:10:59.053Z,3.78
2022-12-03T06:13:02.171Z,3.80
2022-12-03T06:15:05.551Z,3.80
2022-12-03T06:17:09.582Z,3.79
2022-12-03T06:19:12.167Z,3.79
2022-12-03T06:21:14.751Z,3.78
2022-12-03T06:23:17.330Z,3.77
2022-12-03T06:25:19.930Z,3.79
2022-12-03T06:27:23.082Z,3.78
2022-12-03T06:29:25.735Z,3.75
2022-12-03T06:31:28.440Z,3.75
2022-12-03T06:33:32.446Z,3.76
2022-12-03T06:35:35.023Z,3.79
2022-12-03T06:37:37.639Z,3.79
2022-12-03T06:39:40.221Z,3.78
2022-12-03T06:41:42.908Z,3.78
2022-12-03T06:43:45.493Z,3.79
2022-12-03T06:45:48.718Z,3.76
2022-12-03T06:47:51.336Z,3.79
2022-12-03T06:49:55.435Z,3.82
2022-12-03T06:51:58.056Z,3.81
2022-12-03T06:54:00.630Z,3.81
2022-12-03T06:56:03.210Z,3.82
2022-12-03T06:58:05.827Z,3.81
2022-12-03T07:00:09.888Z,3.81
2022-12-03T07:02:13.218Z,3.81
2022-12-03T07:04:18.835Z,3.82
2022-12-03T07:06:22.790Z,3.82
2022-12-03T07:08:25.446Z,3.83
2022-12-03T07:10:28.219Z,3.83
2022-12-03T07:12:31.625Z,3.85
2022-12-03T07:14:34.260Z,3.85
2022-12-03T07:16:37.281Z,3.88
2022-12-03T07:18:39.974Z,3.88
2022-12-03T07:20:42.566Z,3.87
2022-12-03T07:22:46.513Z,3.87
2022-12-03T07:24:49.149Z,3.89
2022-12-03T07:26:51.719Z,3.88
2022-12-03T07:28:54.345Z,3.90
2022-12-03T07:30:56.992Z,3.90
2022-12-03T07:32:59.622Z,3.89
2022-12-03T07:35:02.867Z,3.89
2022-12-03T07:37:05.538Z,3.89
2022-12-03T07:39:09.533Z,3.82
2022-12-03T07:41:12.209Z,3.84
2022-12-03T07:43:14.816Z,3.84
2022-12-03T07:45:17.483Z,3.85
2022-12-03T07:47:20.215Z,3.82
2022-12-03T07:49:22.814Z,3.86
2022-12-03T07:51:30.631Z,3.85
2022-12-03T07:53:36.099Z,3.87
2022-12-03T07:55:40.068Z,3.83
2022-12-03T07:57:42.637Z,3.86
2022-12-03T07:59:45.218Z,3.87
2022-12-03T08:01:47.848Z,3.87
2022-12-03T08:03:50.507Z,3.87
2022-12-03T08:05:55.283Z,3.88
2022-12-03T08:07:58.019Z,3.88
2022-12-03T08:10:00.684Z,3.88
2022-12-03T08:12:13.978Z,3.88
2022-12-03T08:14:18.028Z,3.88
2022-12-03T08:16:23.447Z,3.89
2022-12-03T08:18:26.228Z,3.89
2022-12-03T08:20:33.722Z,3.91
2022-12-03T08:22:36.297Z,3.93
2022-12-03T08:24:39.064Z,3.91
2022-12-03T08:26:43.875Z,3.97
2022-12-03T08:28:48.247Z,3.96
2022-12-03T08:31:01.176Z,3.95
2022-12-03T08:33:14.616Z,3.96
2022-12-03T08:35:23.643Z,3.99
2022-12-03T08:37:26.340Z,4.00
2022-12-03T08:39:33.545Z,4.02
2022-12-03T08:41:54.739Z,4.01
2022-12-03T08:43:58.701Z,3.99
2022-12-03T08:46:01.640Z,4.03
2022-12-03T08:48:11.186Z,4.04
2022-12-03T08:50:28.280Z,4.04
2022-12-03T08:52:33.257Z,4.05
2022-12-03T08:54:35.906Z,4.04
2022-12-03T08:56:38.660Z,4.06
2022-12-03T08:58:43.399Z,4.06
2022-12-03T09:00:47.374Z,4.07
2022-12-03T09:02:53.181Z,4.07
2022-12-03T09:04:56.134Z,4.09
2022-12-03T09:06:59.135Z,4.10
2022-12-03T09:09:06.544Z,4.13
2022-12-03T09:11:09.490Z,4.11
2022-12-03T09:13:12.332Z,4.14
2022-12-03T09:15:14.958Z,4.15
2022-12-03T09:17:18.925Z,4.09
2022-12-03T09:19:21.528Z,4.11
2022-12-03T09:21:24.118Z,4.14
2022-12-03T09:23:26.731Z,4.15
2022-12-03T09:25:29.351Z,4.18
2022-12-03T09:27:31.935Z,4.17
2022-12-03T09:29:34.591Z,4.20
2022-12-03T09:31:37.322Z,4.20
2022-12-03T09:33:41.303Z,4.22
2022-12-03T09:35:43.892Z,4.19
2022-12-03T09:37:46.597Z,4.21
2022-12-03T09:39:49.207Z,4.27
2022-12-03T09:41:51.885Z,4.25
2022-12-03T09:44:17.142Z,4.28
2022-12-03T09:46:18.102Z,4.26
2022-12-03T09:48:21.965Z,4.30
2022-12-03T09:50:28.007Z,4.32
2022-12-03T09:52:34.850Z,4.25
2022-12-03T09:54:41.557Z,4.24
2022-12-03T09:56:46.850Z,4.18
2022-12-03T09:58:50.611Z,4.16
2022-12-03T10:00:53.366Z,4.19
2022-12-03T10:02:59.065Z,4.20
2022-12-03T10:05:01.755Z,4.18
2022-12-03T10:07:05.719Z,4.18
2022-12-03T10:09:11.077Z,4.19
2022-12-03T10:11:13.750Z,4.22
2022-12-03T10:13:25.476Z,4.20
2022-12-03T10:15:28.752Z,4.23
2022-12-03T10:17:32.913Z,4.23
2022-12-03T10:19:37.584Z,4.29
2022-12-03T10:21:40.346Z,4.27
2022-12-03T10:23:48.221Z,4.25
2022-12-03T10:25:55.617Z,4.23
2022-12-03T10:28:00.838Z,4.23
2022-12-03T10:30:06.379Z,4.26
2022-12-03T10:32:13.195Z,4.24
2022-12-03T10:34:25.075Z,4.26
2022-12-03T10:36:27.520Z,4.22
2022-12-03T10:38:30.141Z,4.21
2022-12-03T10:40:36.499Z,4.21
2022-12-03T10:42:41.558Z,4.25
2022-12-03T10:44:44.335Z,4.23
2022-12-03T10:47:05.245Z,4.24
2022-12-03T10:49:16.177Z,4.26
2022-12-03T10:51:21.079Z,4.28
2022-12-03T10:53:27.952Z,4.28
2022-12-03T10:55:38.473Z,4.25
2022-12-03T10:57:45.674Z,4.26
2022-12-03T10:59:48.675Z,4.27
2022-12-03T11:01:51.904Z,4.27
2022-12-03T11:03:57.683Z,4.28
2022-12-03T11:06:02.256Z,4.30
2022-12-03T11:08:05.332Z,4.31
2022-12-03T11:10:14.860Z,4.30
2022-12-03T11:12:22.226Z,4.30
2022-12-03T11:15:06.547Z,4.31
2022-12-03T11:17:12.121Z,4.30
2022-12-03T11:19:19.103Z,4.30
2022-12-03T11:21:21.776Z,4.28
2022-12-03T11:23:57.748Z,4.29
2022-12-03T11:26:00.397Z,4.30
2022-12-03T11:28:34.145Z,4.30
2022-12-03T11:31:09.220Z,4.26
2022-12-03T11:33:22.928Z,4.27
2022-12-03T11:35:36.734Z,4.30
2022-12-03T11:37:39.675Z,4.28
2022-12-03T11:40:02.778Z,4.28
2022-12-03T11:42:29.850Z,4.32
2022-12-03T11:44:33.853Z,4.31
2022-12-03T11:46:43.548Z,4.31
2022-12-03T11:48:47.513Z,4.29
2022-12-03T11:50:52.677Z,4.30
2022-12-03T11:52:57.358Z,4.30
2022-12-03T11:55:06.017Z,4.32
2022-12-03T11:57:27.423Z,4.34
2022-12-03T11:59:30.182Z,4.36
2022-12-03T12:01:38.852Z,4.35
2022-12-03T12:03:45.121Z,4.34
2022-12-03T12:05:47.852Z,4.32
2022-12-03T12:07:50.966Z,4.32
2022-12-03T12:09:55.541Z,4.35
2022-12-03T12:12:19.436Z,4.33
2022-12-03T12:14:27.835Z,4.36
2022-12-03T12:16:41.035Z,4.37
2022-12-03T12:18:51.135Z,4.39
2022-12-03T12:21:33.565Z,4.32
2022-12-03T12:23:36.234Z,4.36
2022-12-03T12:25:41.329Z,4.32
2022-12-03T12:27:45.480Z,4.38
2022-12-03T12:29:55.879Z,4.36
2022-12-03T12:32:03.298Z,4.36
2022-12-03T12:34:12.341Z,4.36
2022-12-03T12:36:15.048Z,4.36
2022-12-03T12:38:19.559Z,4.36
2022-12-03T12:40:24.909Z,4.35
2022-12-03T12:42:33.950Z,4.40
2022-12-03T12:44:36.568Z,4.36
2022-12-03T12:46:47.760Z,4.38
2022-12-03T12:48:56.487Z,4.42
2022-12-03T12:51:10.087Z,4.38
2022-12-03T12:53:17.959Z,4.39
2022-12-03T12:55:21.532Z,4.40
2022-12-03T12:57:24.686Z,4.39
2022-12-03T12:59:27.308Z,4.38
2022-12-03T13:01:32.527Z,4.37
2022-12-03T13:03:37.946Z,4.40
2022-12-03T13:05:45.515Z,4.40
2022-12-03T13:07:48.871Z,4.43
2022-12-03T13:09:55.609Z,4.40
2022-12-03T13:12:00.586Z,4.39
2022-12-03T13:14:11.431Z,4.40
2022-12-03T13:16:20.425Z,4.39
2022-12-03T13:18:32.342Z,4.41
2022-12-03T13:20:34.793Z,4.38
2022-12-03T13:22:38.714Z,4.39
2022-12-03T13:24:44.804Z,4.37
2022-12-03T13:26:47.403Z,4.36
2022-12-03T13:28:50.467Z,4.36
2022-12-03T13:30:53.098Z,4.35
2022-12-03T13:32:56.046Z,4.37
2022-12-03T13:35:06.898Z,4.32
2022-12-03T13:37:15.018Z,4.33
2022-12-03T13:39:22.382Z,4.33
2022-12-03T13:41:50.874Z,4.35
2022-12-03T13:43:53.897Z,4.32
2022-12-03T13:45:56.668Z,4.33
2022-12-03T13:48:01.007Z,4.35
2022-12-03T13:50:20.085Z,4.42
2022-12-03T13:52:26.168Z,4.35
2022-12-03T13:54:31.495Z,4.32
2022-12-03T13:56:36.309Z,4.32
2022-12-03T13:58:38.930Z,4.29
2022-12-03T14:00:41.608Z,4.31
2022-12-03T14:02:44.717Z,4.25
2022-12-03T14:04:47.369Z,4.28
2022-12-03T14:06:50.129Z,4.28
2022-12-03T14:09:07.820Z,4.25
2022-12-03T14:11:33.207Z,4.23
2022-12-03T14:13:35.912Z,4.21
2022-12-03T14:15:38.524Z,4.21
2022-12-03T14:17:41.441Z,4.20
2022-12-03T14:19:44.065Z,4.16
2022-12-03T14:21:46.689Z,4.13
2022-12-03T14:23:49.280Z,4.10
2022-12-03T14:25:51.879Z,4.12
2022-12-03T14:27:55.881Z,4.09
2022-12-03T14:29:58.454Z,4.11
2022-12-03T14:32:01.200Z,4.09
2022-12-03T14:34:03.902Z,4.14
2022-12-03T14:36:06.881Z,4.12
2022-12-03T14:38:09.487Z,4.13
2022-12-03T14:40:17.972Z,4.12
2022-12-03T14:42:23.654Z,4.12
2022-12-03T14:44:27.669Z,4.10
2022-12-03T14:46:30.236Z,4.09
2022-12-03T14:48:32.807Z,4.07
2022-12-03T14:50:35.440Z,4.07
2022-12-03T14:52:38.466Z,4.08
2022-12-03T14:54:42.288Z,4.08
2022-12-03T14:56:45.335Z,4.07
2022-12-03T14:58:47.907Z,4.11
2022-12-03T15:00:51.901Z,4.11
2022-12-03T15:02:54.574Z,4.07
2022-12-03T15:04:57.216Z,4.04
2022-12-03T15:06:59.874Z,4.07
2022-12-03T15:09:02.459Z,4.07
2022-12-03T15:11:05.105Z,4.06
2022-12-03T15:13:07.685Z,4.06
2022-12-03T15:15:11.382Z,4.02
2022-12-03T15:17:15.372Z,4.02
2022-12-03T15:19:18.070Z,4.01
2022-12-03T15:21:20.722Z,4.03
2022-12-03T15:23:23.315Z,4.03
2022-12-03T15:25:26.082Z,4.05
2022-12-03T15:27:28.691Z,4.02
2022-12-03T15:29:32.751Z,4.03
2022-12-03T15:31:35.428Z,4.03
2022-12-03T15:33:39.433Z,4.02
2022-12-03T15:35:42.807Z,4.01
2022-12-03T15:37:45.555Z,3.98
2022-12-03T15:39:48.985Z,3.99
2022-12-03T15:41:51.747Z,3.99
2022-12-03T15:43:54.396Z,3.98
2022-12-03T15:45:57.121Z,3.94
2022-12-03T15:47:59.852Z,3.94
2022-12-03T15:50:03.867Z,3.90
2022-12-03T15:52:07.772Z,3.92
2022-12-03T15:54:12.145Z,3.89
2022-12-03T15:56:15.106Z,3.92
2022-12-03T15:58:17.668Z,3.88
2022-12-03T16:00:21.382Z,3.91
2022-12-03T16:02:24.038Z,3.86
2022-12-03T16:04:26.663Z,3.87
2022-12-03T16:06:30.574Z,3.89
2022-12-03T16:08:33.250Z,3.87
2022-12-03T16:10:35.881Z,3.85
2022-12-03T16:12:38.511Z,3.82
2022-12-03T16:14:41.112Z,3.79
2022-12-03T16:16:43.710Z,3.79
2022-12-03T16:18:47.005Z,3.75
2022-12-03T16:20:49.797Z,3.72
2022-12-03T16:22:54.018Z,3.71
2022-12-03T16:24:56.604Z,3.69
2022-12-03T16:26:59.269Z,3.68
2022-12-03T16:29:01.955Z,3.67
2022-12-03T16:31:04.773Z,3.64
2022-12-03T16:33:07.395Z,3.66
2022-12-03T16:35:10.333Z,3.69
2022-12-03T16:37:12.983Z,3.69
2022-12-03T16:39:17.286Z,3.70
2022-12-03T16:41:19.895Z,3.66
2022-12-03T16:43:22.466Z,3.65
2022-12-03T16:45:51.226Z,3.66
2022-12-03T16:47:53.849Z,3.66
2022-12-03T16:49:56.555Z,3.67
2022-12-03T16:51:59.221Z,3.68
2022-12-03T16:54:01.831Z,3.69
2022-12-03T16:56:06.195Z,3.69
2022-12-03T16:58:08.772Z,3.70
2022-12-03T17:00:12.365Z,3.68
2022-12-03T17:02:15.228Z,3.64
2022-12-03T17:04:17.991Z,3.64
2022-12-03T17:06:20.614Z,3.52
2022-12-03T17:08:23.337Z,3.55
2022-12-03T17:10:26.087Z,3.55
2022-12-03T17:12:47.923Z,3.53
2022-12-03T17:14:52.769Z,3.51
2022-12-03T17:16:55.411Z,3.54
2022-12-03T17:18:57.994Z,3.48
2022-12-03T17:21:00.579Z,3.50
2022-12-03T17:23:03.523Z,3.49
2022-12-03T17:25:06.616Z,3.52
2022-12-03T17:27:09.234Z,3.49
2022-12-03T17:29:14.198Z,3.42
2022-12-03T17:31:16.928Z,3.49
2022-12-03T17:33:19.617Z,3.51
2022-12-03T17:35:22.318Z,3.51
2022-12-03T17:37:25.124Z,3.49
2022-12-03T17:39:27.708Z,3.51
2022-12-03T17:41:30.336Z,3.50
2022-12-03T17:43:32.926Z,3.51
2022-12-03T17:45:36.888Z,3.50
2022-12-03T17:47:39.514Z,3.50
2022-12-03T17:49:42.176Z,3.47
2022-12-03T17:51:44.792Z,3.48
2022-12-03T17:53:47.412Z,3.51
2022-12-03T17:55:53.119Z,3.51
2022-12-03T17:57:55.756Z,3.53
2022-12-03T17:59:58.383Z,3.49
2022-12-03T18:02:02.446Z,3.48
2022-12-03T18:04:05.205Z,3.47
2022-12-03T18:06:11.059Z,3.50
2022-12-03T18:08:13.670Z,3.51
2022-12-03T18:10:16.449Z,3.50
2022-12-03T18:12:19.039Z,3.47
2022-12-03T18:14:21.612Z,3.46
2022-12-03T18:16:24.298Z,3.48
2022-12-03T18:18:28.287Z,3.46
2022-12-03T18:20:30.940Z,3.48
2022-12-03T18:22:33.726Z,3.46
2022-12-03T18:24:36.375Z,3.44
2022-12-03T18:26:42.690Z,3.44
2022-12-03T18:28:45.295Z,3.45
2022-12-03T18:30:52.540Z,3.45
2022-12-03T18:32:55.663Z,3.44
2022-12-03T18:34:59.668Z,3.44
2022-12-03T18:37:02.341Z,3.45
2022-12-03T18:39:09.046Z,3.42
2022-12-03T18:41:11.685Z,3.43
2022-12-03T18:43:16.840Z,3.43
2022-12-03T18:45:20.016Z,3.42
2022-12-03T18:47:24.511Z,3.47
2022-12-03T18:49:27.152Z,3.45
2022-12-03T18:51:31.100Z,3.48
2022-12-03T18:53:36.296Z,3.48
2022-12-03T18:55:39.192Z,3.46
2022-12-03T18:57:41.784Z,3.47
2022-12-03T18:59:44.367Z,3.43
2022-12-03T19:01:46.959Z,3.46
2022-12-03T19:03:50.050Z,3.48
2022-12-03T19:05:52.730Z,3.49
2022-12-03T19:07:56.782Z,3.50
2022-12-03T19:09:59.414Z,3.47
2022-12-03T19:12:01.977Z,3.43
2022-12-03T19:14:04.553Z,3.44
2022-12-03T19:16:08.687Z,3.43
2022-12-03T19:18:11.322Z,3.42
2022-12-03T19:20:14.357Z,3.41
2022-12-03T19:22:17.064Z,3.40
2022-12-03T19:24:25.271Z,3.40
2022-12-03T19:26:28.482Z,3.38
2022-12-03T19:28:31.584Z,3.39
2022-12-03T19:30:34.252Z,3.36
2022-12-03T19:32:37.127Z,3.35
2022-12-03T19:34:39.876Z,3.35
2022-12-03T19:36:42.531Z,3.34
2022-12-03T19:38:52.130Z,3.39
2022-12-03T19:41:03.960Z,3.35
2022-12-03T19:43:06.546Z,3.29
2022-12-03T19:45:10.554Z,3.34
2022-12-03T19:47:13.154Z,3.32
2022-12-03T19:49:16.655Z,3.34
2022-12-03T19:51:34.251Z,3.38
2022-12-03T19:53:38.258Z,3.35
2022-12-03T19:55:40.914Z,3.34
2022-12-03T19:57:44.860Z,3.37
2022-12-03T19:59:47.523Z,3.38
2022-12-03T20:01:50.220Z,3.37
2022-12-03T20:03:54.781Z,3.39
2022-12-03T20:06:01.138Z,3.40
2022-12-03T20:08:04.701Z,3.36
2022-12-03T20:10:08.501Z,3.41
2022-12-03T20:12:11.112Z,3.38
2022-12-03T20:14:16.408Z,3.39
2022-12-03T20:16:19.142Z,3.39
2022-12-03T20:18:21.805Z,3.40
2022-12-03T20:20:24.780Z,3.38
2022-12-03T20:22:27.419Z,3.35
2022-12-03T20:24:30.011Z,3.37
2022-12-03T20:26:33.117Z,3.36
2022-12-03T20:28:35.808Z,3.36
2022-12-03T20:30:39.785Z,3.35
2022-12-03T20:32:45.454Z,3.34
2022-12-03T20:34:49.601Z,3.34
2022-12-03T20:36:52.285Z,3.31
2022-12-03T20:38:55.833Z,3.28
2022-12-03T20:41:02.018Z,3.27
2022-12-03T20:43:04.606Z,3.30
2022-12-03T20:45:08.454Z,3.31
2022-12-03T20:47:12.435Z,3.33
2022-12-03T20:49:15.023Z,3.28
2022-12-03T20:51:19.857Z,3.25
2022-12-03T20:53:25.254Z,3.30
2022-12-03T20:55:28.330Z,3.33
2022-12-03T20:57:30.919Z,3.29
2022-12-03T20:59:33.697Z,3.28
2022-12-03T21:01:38.391Z,3.32
2022-12-03T21:03:42.479Z,3.32
2022-12-03T21:05:45.290Z,3.33
2022-12-03T21:07:48.109Z,3.32
2022-12-03T21:09:50.816Z,3.33
2022-12-03T21:11:53.684Z,3.32
2022-12-03T21:13:56.853Z,3.30
2022-12-03T21:16:05.473Z,3.29
2022-12-03T21:18:08.819Z,3.29
2022-12-03T21:20:16.673Z,3.27
2022-12-03T21:22:23.437Z,3.29
2022-12-03T21:24:26.115Z,3.32
2022-12-03T21:26:28.774Z,3.33
2022-12-03T21:28:31.903Z,3.31
2022-12-03T21:30:37.604Z,3.35
2022-12-03T21:32:40.311Z,3.35
2022-12-03T21:34:42.913Z,3.30
2022-12-03T21:36:47.177Z,3.30
2022-12-03T21:38:49.938Z,3.29
2022-12-03T21:40:52.515Z,3.29
2022-12-03T21:42:55.234Z,3.32
2022-12-03T21:44:57.932Z,3.31
2022-12-03T21:47:09.359Z,3.32
2022-12-03T21:49:19.296Z,3.29
2022-12-03T21:51:21.982Z,3.27
2022-12-03T21:53:26.088Z,3.29
2022-12-03T21:55:31.963Z,3.30
2022-12-03T21:57:36.610Z,3.30
2022-12-03T21:59:39.213Z,3.31
2022-12-03T22:01:46.961Z,3.31
2022-12-03T22:03:50.629Z,3.31
2022-12-03T22:05:53.283Z,3.30
2022-12-03T22:07:55.921Z,3.31
2022-12-03T22:09:59.947Z,3.29
2022-12-03T22:12:02.610Z,3.30
2022-12-03T22:14:06.919Z,3.30
2022-12-03T22:16:12.091Z,3.30
2022-12-03T22:18:14.788Z,3.29
2022-12-03T22:20:17.536Z,3.27
2022-12-03T22:22:21.018Z,3.24
2022-12-03T22:24:24.037Z,3.25
2022-12-03T22:26:28.018Z,3.22
2022-12-03T22:28:30.661Z,3.26
2022-12-03T22:30:33.340Z,3.26
2022-12-03T22:32:36.323Z,3.24
2022-12-03T22:34:40.879Z,3.25
2022-12-03T22:36:43.525Z,3.25
2022-12-03T22:38:46.593Z,3.26
2022-12-03T22:40:49.178Z,3.21
2022-12-03T22:42:53.215Z,3.25
2022-12-03T22:44:55.845Z,3.24
2022-12-03T22:46:58.468Z,3.21
2022-12-03T22:49:06.705Z,3.17
2022-12-03T22:51:14.055Z,3.22
2022-12-03T22:53:16.983Z,3.22
2022-12-03T22:55:19.539Z,3.22
2022-12-03T22:57:22.256Z,3.21
2022-12-03T22:59:26.320Z,3.22
2022-12-03T23:01:31.386Z,3.22
2022-12-03T23:03:34.049Z,3.24
2022-12-03T23:05:39.573Z,3.19
2022-12-03T23:07:42.176Z,3.26
2022-12-03T23:09:44.906Z,3.22
2022-12-03T23:11:48.097Z,3.20
2022-12-03T23:13:50.862Z,3.23
2022-12-03T23:15:54.855Z,3.23
2022-12-03T23:17:58.378Z,3.25
2022-12-03T23:20:00.970Z,3.25
2022-12-03T23:22:03.657Z,3.24
2022-12-03T23:24:07.749Z,3.22
2022-12-03T23:26:13.127Z,3.24
2022-12-03T23:28:15.740Z,3.23
2022-12-03T23:30:18.482Z,3.22
2022-12-03T23:32:22.432Z,3.23
2022-12-03T23:34:25.068Z,3.23
2022-12-03T23:36:30.997Z,3.24
2022-12-03T23:38:33.660Z,3.25
2022-12-03T23:40:36.259Z,3.19
2022-12-03T23:42:38.983Z,3.17
2022-12-03T23:44:41.524Z,3.19
2022-12-03T23:46:44.140Z,3.22
2022-12-03T23:48:48.394Z,3.22
2022-12-03T23:50:50.957Z,3.23
2022-12-03T23:52:53.696Z,3.22
2022-12-03T23:54:56.303Z,3.22
2022-12-03T23:56:59.240Z,3.21
2022-12-03T23:59:01.896Z,3.22
